sensor_id;sensor_type;location;lat;lon;timestamp;pressure;altitude;pressure_sealevel;temperature;humidity
27712;BME280;2377;51.734;8.950;2023-04-05T00:00:03;98563.00;;;1.84;65.84
27712;BME280;2377;51.734;8.950;2023-04-05T00:02:34;98559.97;;;1.81;64.96
27712;BME280;2377;51.734;8.950;2023-04-05T00:05:02;98561.97;;;1.77;65.26
27712;BME280;2377;51.734;8.950;2023-04-05T00:07:30;98564.78;;;1.74;65.27
27712;BME280;2377;51.734;8.950;2023-04-05T00:09:59;98560.16;;;1.69;65.37
27712;BME280;2377;51.734;8.950;2023-04-05T00:12:26;98561.19;;;1.67;65.84
27712;BME280;2377;51.734;8.950;2023-04-05T00:14:54;98558.03;;;1.65;65.27
27712;BME280;2377;51.734;8.950;2023-04-05T00:17:21;98565.06;;;1.61;65.02
27712;BME280;2377;51.734;8.950;2023-04-05T00:19:49;98566.13;;;1.59;65.33
27712;BME280;2377;51.734;8.950;2023-04-05T00:22:21;98562.28;;;1.55;65.43
27712;BME280;2377;51.734;8.950;2023-04-05T00:24:50;98557.41;;;1.53;65.42
27712;BME280;2377;51.734;8.950;2023-04-05T00:27:18;98559.09;;;1.53;64.89
27712;BME280;2377;51.734;8.950;2023-04-05T00:29:45;98555.66;;;1.54;64.83
27712;BME280;2377;51.734;8.950;2023-04-05T00:32:13;98554.72;;;1.55;65.10
27712;BME280;2377;51.734;8.950;2023-04-05T00:34:40;98567.31;;;1.55;66.61
27712;BME280;2377;51.734;8.950;2023-04-05T00:37:07;98558.19;;;1.54;65.55
27712;BME280;2377;51.734;8.950;2023-04-05T00:39:34;98563.50;;;1.51;66.14
27712;BME280;2377;51.734;8.950;2023-04-05T00:42:02;98569.19;;;1.53;65.60
27712;BME280;2377;51.734;8.950;2023-04-05T00:44:29;98554.06;;;1.53;66.04
27712;BME280;2377;51.734;8.950;2023-04-05T00:46:59;98557.25;;;1.55;65.47
27712;BME280;2377;51.734;8.950;2023-04-05T00:49:29;98548.53;;;1.49;65.12
27712;BME280;2377;51.734;8.950;2023-04-05T00:51:58;98549.72;;;1.45;65.21
27712;BME280;2377;51.734;8.950;2023-04-05T00:54:27;98540.44;;;1.45;65.95
27712;BME280;2377;51.734;8.950;2023-04-05T00:56:55;98553.03;;;1.45;65.85
27712;BME280;2377;51.734;8.950;2023-04-05T00:59:22;98543.50;;;1.39;66.54
27712;BME280;2377;51.734;8.950;2023-04-05T01:01:55;98541.22;;;1.36;67.07
27712;BME280;2377;51.734;8.950;2023-04-05T01:04:29;98539.94;;;1.32;67.86
27712;BME280;2377;51.734;8.950;2023-04-05T01:07:06;98533.28;;;1.31;67.56
27712;BME280;2377;51.734;8.950;2023-04-05T01:09:48;98534.25;;;1.30;67.78
27712;BME280;2377;51.734;8.950;2023-04-05T01:12:20;98533.16;;;1.33;67.63
27712;BME280;2377;51.734;8.950;2023-04-05T01:14:50;98537.81;;;1.37;67.67
27712;BME280;2377;51.734;8.950;2023-04-05T01:17:19;98536.59;;;1.41;67.64
27712;BME280;2377;51.734;8.950;2023-04-05T01:19:50;98534.72;;;1.43;68.00
27712;BME280;2377;51.734;8.950;2023-04-05T01:26:00;98527.31;;;1.42;68.42
27712;BME280;2377;51.734;8.950;2023-04-05T01:31:49;98527.03;;;1.45;67.79
27712;BME280;2377;51.734;8.950;2023-04-05T01:34:28;98527.44;;;1.40;67.68
27712;BME280;2377;51.734;8.950;2023-04-05T01:37:05;98528.63;;;1.36;68.29
27712;BME280;2377;51.734;8.950;2023-04-05T01:39:35;98523.22;;;1.31;68.54
27712;BME280;2377;51.734;8.950;2023-04-05T01:42:03;98530.00;;;1.31;68.47
27712;BME280;2377;51.734;8.950;2023-04-05T01:44:30;98520.97;;;1.28;68.55
27712;BME280;2377;51.734;8.950;2023-04-05T01:46:59;98517.81;;;1.26;68.65
27712;BME280;2377;51.734;8.950;2023-04-05T01:49:26;98517.13;;;1.24;68.83
27712;BME280;2377;51.734;8.950;2023-04-05T01:51:53;98511.59;;;1.20;68.88
27712;BME280;2377;51.734;8.950;2023-04-05T01:54:20;98515.81;;;1.20;68.28
27712;BME280;2377;51.734;8.950;2023-04-05T01:56:47;98513.28;;;1.20;68.47
27712;BME280;2377;51.734;8.950;2023-04-05T01:59:14;98512.50;;;1.19;68.88
27712;BME280;2377;51.734;8.950;2023-04-05T02:01:41;98507.63;;;1.18;68.60
27712;BME280;2377;51.734;8.950;2023-04-05T02:04:09;98511.19;;;1.15;68.14
27712;BME280;2377;51.734;8.950;2023-04-05T02:06:36;98506.41;;;1.12;68.51
27712;BME280;2377;51.734;8.950;2023-04-05T02:09:03;98507.22;;;1.13;68.42
27712;BME280;2377;51.734;8.950;2023-04-05T02:11:30;98507.38;;;1.11;68.84
27712;BME280;2377;51.734;8.950;2023-04-05T02:13:57;98502.19;;;1.13;69.08
27712;BME280;2377;51.734;8.950;2023-04-05T02:16:25;98501.09;;;1.15;69.71
27712;BME280;2377;51.734;8.950;2023-04-05T02:18:52;98500.97;;;1.17;69.30
27712;BME280;2377;51.734;8.950;2023-04-05T02:21:23;98504.44;;;1.16;69.05
27712;BME280;2377;51.734;8.950;2023-04-05T02:23:52;98505.34;;;1.15;69.01
27712;BME280;2377;51.734;8.950;2023-04-05T02:26:19;98500.47;;;1.13;69.38
27712;BME280;2377;51.734;8.950;2023-04-05T02:28:47;98507.88;;;1.15;69.63
27712;BME280;2377;51.734;8.950;2023-04-05T02:31:14;98503.78;;;1.14;69.42
27712;BME280;2377;51.734;8.950;2023-04-05T02:33:41;98504.69;;;1.13;69.32
27712;BME280;2377;51.734;8.950;2023-04-05T02:36:10;98500.59;;;1.12;69.82
27712;BME280;2377;51.734;8.950;2023-04-05T02:38:39;98509.09;;;1.11;70.26
27712;BME280;2377;51.734;8.950;2023-04-05T02:41:08;98497.41;;;1.10;70.33
27712;BME280;2377;51.734;8.950;2023-04-05T02:43:36;98501.13;;;1.05;70.08
27712;BME280;2377;51.734;8.950;2023-04-05T02:46:03;98495.59;;;1.02;70.40
27712;BME280;2377;51.734;8.950;2023-04-05T02:48:31;98497.56;;;0.98;70.48
27712;BME280;2377;51.734;8.950;2023-04-05T02:50:58;98483.53;;;0.96;70.64
27712;BME280;2377;51.734;8.950;2023-04-05T02:53:25;98487.66;;;0.97;70.19
27712;BME280;2377;51.734;8.950;2023-04-05T02:55:55;98486.56;;;0.99;70.46
27712;BME280;2377;51.734;8.950;2023-04-05T02:58:23;98485.63;;;1.00;70.20
27712;BME280;2377;51.734;8.950;2023-04-05T03:00:51;98491.34;;;1.02;70.06
27712;BME280;2377;51.734;8.950;2023-04-05T03:03:20;98492.81;;;0.95;69.50
27712;BME280;2377;51.734;8.950;2023-04-05T03:05:56;98492.03;;;0.85;70.38
27712;BME280;2377;51.734;8.950;2023-04-05T03:08:23;98488.19;;;0.81;70.04
27712;BME280;2377;51.734;8.950;2023-04-05T03:10:52;98478.50;;;0.76;70.67
27712;BME280;2377;51.734;8.950;2023-04-05T03:13:20;98482.59;;;0.77;71.07
27712;BME280;2377;51.734;8.950;2023-04-05T03:15:47;98479.97;;;0.79;70.71
27712;BME280;2377;51.734;8.950;2023-04-05T03:18:14;98482.88;;;0.74;71.13
27712;BME280;2377;51.734;8.950;2023-04-05T03:20:41;98481.28;;;0.73;70.69
27712;BME280;2377;51.734;8.950;2023-04-05T03:23:10;98487.13;;;0.74;70.88
27712;BME280;2377;51.734;8.950;2023-04-05T03:25:37;98484.47;;;0.75;70.62
27712;BME280;2377;51.734;8.950;2023-04-05T03:28:06;98481.81;;;0.77;70.54
27712;BME280;2377;51.734;8.950;2023-04-05T03:30:34;98475.22;;;0.76;70.07
27712;BME280;2377;51.734;8.950;2023-04-05T03:33:01;98476.13;;;0.75;70.34
27712;BME280;2377;51.734;8.950;2023-04-05T03:35:29;98472.03;;;0.74;70.74
27712;BME280;2377;51.734;8.950;2023-04-05T03:37:56;98473.75;;;0.73;70.60
27712;BME280;2377;51.734;8.950;2023-04-05T03:40:24;98468.84;;;0.72;70.95
27712;BME280;2377;51.734;8.950;2023-04-05T03:42:51;98467.38;;;0.69;71.12
27712;BME280;2377;51.734;8.950;2023-04-05T03:45:19;98469.38;;;0.66;71.22
27712;BME280;2377;51.734;8.950;2023-04-05T03:47:47;98467.13;;;0.62;71.61
27712;BME280;2377;51.734;8.950;2023-04-05T03:50:14;98472.28;;;0.61;71.50
27712;BME280;2377;51.734;8.950;2023-04-05T03:52:41;98462.38;;;0.59;71.16
27712;BME280;2377;51.734;8.950;2023-04-05T03:55:09;98465.66;;;0.60;71.18
27712;BME280;2377;51.734;8.950;2023-04-05T03:57:36;98470.81;;;0.58;70.92
27712;BME280;2377;51.734;8.950;2023-04-05T04:00:05;98469.13;;;0.59;70.98
27712;BME280;2377;51.734;8.950;2023-04-05T04:02:41;98467.63;;;0.56;70.64
27712;BME280;2377;51.734;8.950;2023-04-05T04:05:10;98460.09;;;0.56;70.80
27712;BME280;2377;51.734;8.950;2023-04-05T04:07:37;98463.44;;;0.57;70.90
27712;BME280;2377;51.734;8.950;2023-04-05T04:10:06;98456.94;;;0.54;71.08
27712;BME280;2377;51.734;8.950;2023-04-05T04:12:33;98459.56;;;0.53;71.20
27712;BME280;2377;51.734;8.950;2023-04-05T04:15:00;98462.88;;;0.53;71.27
27712;BME280;2377;51.734;8.950;2023-04-05T04:17:29;98464.59;;;0.53;70.96
27712;BME280;2377;51.734;8.950;2023-04-05T04:19:58;98460.38;;;0.53;70.78
27712;BME280;2377;51.734;8.950;2023-04-05T04:22:26;98460.38;;;0.53;70.94
27712;BME280;2377;51.734;8.950;2023-04-05T04:24:58;98457.19;;;0.51;71.00
27712;BME280;2377;51.734;8.950;2023-04-05T04:27:27;98463.44;;;0.47;70.57
27712;BME280;2377;51.734;8.950;2023-04-05T04:29:55;98465.50;;;0.42;70.71
27712;BME280;2377;51.734;8.950;2023-04-05T04:32:29;98469.34;;;0.36;70.33
27712;BME280;2377;51.734;8.950;2023-04-05T04:35:11;98458.13;;;0.31;70.61
27712;BME280;2377;51.734;8.950;2023-04-05T04:37:44;98455.84;;;0.28;70.29
27712;BME280;2377;51.734;8.950;2023-04-05T04:40:13;98458.50;;;0.26;70.25
27712;BME280;2377;51.734;8.950;2023-04-05T04:42:42;98461.03;;;0.26;70.39
27712;BME280;2377;51.734;8.950;2023-04-05T04:45:12;98465.38;;;0.24;70.72
27712;BME280;2377;51.734;8.950;2023-04-05T04:47:41;98470.41;;;0.24;70.66
27712;BME280;2377;51.734;8.950;2023-04-05T04:50:10;98461.94;;;0.25;70.43
27712;BME280;2377;51.734;8.950;2023-04-05T04:52:39;98464.59;;;0.24;70.85
27712;BME280;2377;51.734;8.950;2023-04-05T04:55:08;98469.34;;;0.27;70.98
27712;BME280;2377;51.734;8.950;2023-04-05T04:57:35;98466.84;;;0.27;71.30
27712;BME280;2377;51.734;8.950;2023-04-05T05:00:03;98467.50;;;0.29;71.33
27712;BME280;2377;51.734;8.950;2023-04-05T05:02:36;98470.00;;;0.29;71.30
27712;BME280;2377;51.734;8.950;2023-04-05T05:05:04;98470.94;;;0.28;71.05
27712;BME280;2377;51.734;8.950;2023-04-05T05:07:34;98463.53;;;0.26;71.17
27712;BME280;2377;51.734;8.950;2023-04-05T05:10:02;98461.94;;;0.25;70.38
27712;BME280;2377;51.734;8.950;2023-04-05T05:12:30;98462.06;;;0.24;70.58
27712;BME280;2377;51.734;8.950;2023-04-05T05:14:57;98467.75;;;0.26;70.93
27712;BME280;2377;51.734;8.950;2023-04-05T05:17:24;98460.88;;;0.28;71.21
27712;BME280;2377;51.734;8.950;2023-04-05T05:19:51;98461.41;;;0.31;71.13
27712;BME280;2377;51.734;8.950;2023-04-05T05:22:19;98457.97;;;0.32;71.15
27712;BME280;2377;51.734;8.950;2023-04-05T05:24:47;98461.16;;;0.34;71.79
27712;BME280;2377;51.734;8.950;2023-04-05T05:27:14;98461.94;;;0.35;71.29
27712;BME280;2377;51.734;8.950;2023-04-05T05:29:41;98473.59;;;0.36;71.29
27712;BME280;2377;51.734;8.950;2023-04-05T05:32:08;98470.94;;;0.37;71.62
27712;BME280;2377;51.734;8.950;2023-04-05T05:34:39;98471.59;;;0.39;71.47
27712;BME280;2377;51.734;8.950;2023-04-05T05:37:10;98469.47;;;0.45;71.52
27712;BME280;2377;51.734;8.950;2023-04-05T05:39:37;98472.44;;;0.50;71.80
27712;BME280;2377;51.734;8.950;2023-04-05T05:42:06;98473.59;;;0.55;71.75
27712;BME280;2377;51.734;8.950;2023-04-05T05:44:33;98475.06;;;0.58;71.74
27712;BME280;2377;51.734;8.950;2023-04-05T05:47:00;98478.78;;;0.63;72.30
27712;BME280;2377;51.734;8.950;2023-04-05T05:49:28;98472.31;;;0.71;72.06
27712;BME280;2377;51.734;8.950;2023-04-05T05:51:55;98471.75;;;0.77;71.85
27712;BME280;2377;51.734;8.950;2023-04-05T05:54:24;98472.81;;;0.84;72.14
27712;BME280;2377;51.734;8.950;2023-04-05T05:56:51;98466.59;;;0.88;72.84
27712;BME280;2377;51.734;8.950;2023-04-05T05:59:20;98457.69;;;0.94;73.06
27712;BME280;2377;51.734;8.950;2023-04-05T06:01:50;98475.44;;;1.02;72.48
27712;BME280;2377;51.734;8.950;2023-04-05T06:04:17;98472.25;;;1.10;72.68
27712;BME280;2377;51.734;8.950;2023-04-05T06:06:44;98470.00;;;1.16;72.93
27712;BME280;2377;51.734;8.950;2023-04-05T06:09:13;98475.28;;;1.23;72.51
27712;BME280;2377;51.734;8.950;2023-04-05T06:11:41;98470.34;;;1.31;72.41
27712;BME280;2377;51.734;8.950;2023-04-05T06:14:08;98481.34;;;1.40;72.25
27712;BME280;2377;51.734;8.950;2023-04-05T06:16:37;98473.47;;;1.53;72.26
27712;BME280;2377;51.734;8.950;2023-04-05T06:19:04;98475.81;;;1.64;71.73
27712;BME280;2377;51.734;8.950;2023-04-05T06:21:31;98465.44;;;1.77;71.59
27712;BME280;2377;51.734;8.950;2023-04-05T06:23:58;98473.06;;;1.85;71.19
27712;BME280;2377;51.734;8.950;2023-04-05T06:26:25;98478.06;;;1.95;71.15
27712;BME280;2377;51.734;8.950;2023-04-05T06:28:55;98484.66;;;2.05;71.17
27712;BME280;2377;51.734;8.950;2023-04-05T06:31:29;98484.19;;;2.20;70.63
27712;BME280;2377;51.734;8.950;2023-04-05T06:33:57;98479.06;;;2.29;70.62
27712;BME280;2377;51.734;8.950;2023-04-05T06:36:25;98482.03;;;2.43;69.90
27712;BME280;2377;51.734;8.950;2023-04-05T06:38:52;98486.06;;;2.53;70.23
27712;BME280;2377;51.734;8.950;2023-04-05T06:41:19;98474.84;;;2.66;69.59
27712;BME280;2377;51.734;8.950;2023-04-05T06:43:46;98473.03;;;2.76;69.54
27712;BME280;2377;51.734;8.950;2023-04-05T06:46:13;98470.56;;;2.84;68.16
27712;BME280;2377;51.734;8.950;2023-04-05T06:48:41;98472.84;;;2.95;69.31
27712;BME280;2377;51.734;8.950;2023-04-05T06:51:10;98477.03;;;3.05;68.60
27712;BME280;2377;51.734;8.950;2023-04-05T06:53:37;98470.31;;;3.13;68.12
27712;BME280;2377;51.734;8.950;2023-04-05T06:56:06;98477.13;;;3.21;67.70
27712;BME280;2377;51.734;8.950;2023-04-05T06:58:33;98479.88;;;3.28;66.91
27712;BME280;2377;51.734;8.950;2023-04-05T07:01:01;98479.41;;;3.32;66.31
27712;BME280;2377;51.734;8.950;2023-04-05T07:03:28;98480.53;;;3.38;66.39
27712;BME280;2377;51.734;8.950;2023-04-05T07:05:58;98476.47;;;3.45;66.56
27712;BME280;2377;51.734;8.950;2023-04-05T07:08:30;98475.59;;;3.54;65.46
27712;BME280;2377;51.734;8.950;2023-04-05T07:10:58;98471.97;;;3.57;65.79
27712;BME280;2377;51.734;8.950;2023-04-05T07:13:25;98477.22;;;3.64;65.86
27712;BME280;2377;51.734;8.950;2023-04-05T07:15:59;98469.50;;;3.73;65.26
27712;BME280;2377;51.734;8.950;2023-04-05T07:18:27;98467.94;;;3.80;65.67
27712;BME280;2377;51.734;8.950;2023-04-05T07:20:57;98464.22;;;3.93;65.96
27712;BME280;2377;51.734;8.950;2023-04-05T07:23:30;98462.81;;;4.07;66.04
27712;BME280;2377;51.734;8.950;2023-04-05T07:26:01;98462.84;;;4.23;64.60
27712;BME280;2377;51.734;8.950;2023-04-05T07:28:30;98457.38;;;4.36;62.02
27712;BME280;2377;51.734;8.950;2023-04-05T07:31:00;98466.56;;;4.45;62.80
27712;BME280;2377;51.734;8.950;2023-04-05T07:33:27;98462.63;;;4.59;63.06
27712;BME280;2377;51.734;8.950;2023-04-05T07:35:54;98459.91;;;4.77;61.62
27712;BME280;2377;51.734;8.950;2023-04-05T07:38:22;98459.44;;;4.90;60.88
27712;BME280;2377;51.734;8.950;2023-04-05T07:40:51;98461.34;;;5.04;60.24
27712;BME280;2377;51.734;8.950;2023-04-05T07:43:18;98464.78;;;5.19;60.24
27712;BME280;2377;51.734;8.950;2023-04-05T07:45:45;98467.75;;;5.31;58.73
27712;BME280;2377;51.734;8.950;2023-04-05T07:48:12;98458.56;;;5.38;58.82
27712;BME280;2377;51.734;8.950;2023-04-05T07:50:41;98456.78;;;5.55;59.13
27712;BME280;2377;51.734;8.950;2023-04-05T07:53:12;98455.63;;;5.66;58.11
27712;BME280;2377;51.734;8.950;2023-04-05T07:55:39;98458.31;;;5.72;57.11
27712;BME280;2377;51.734;8.950;2023-04-05T07:58:08;98457.19;;;5.75;56.21
27712;BME280;2377;51.734;8.950;2023-04-05T08:00:36;98456.81;;;5.86;56.67
27712;BME280;2377;51.734;8.950;2023-04-05T08:03:03;98465.22;;;5.95;57.04
27712;BME280;2377;51.734;8.950;2023-04-05T08:05:31;98472.28;;;6.08;56.32
27712;BME280;2377;51.734;8.950;2023-04-05T08:07:58;98475.88;;;6.13;55.82
27712;BME280;2377;51.734;8.950;2023-04-05T08:10:25;98470.31;;;6.18;56.17
27712;BME280;2377;51.734;8.950;2023-04-05T08:12:52;98482.97;;;6.26;55.35
27712;BME280;2377;51.734;8.950;2023-04-05T08:15:21;98471.47;;;6.39;55.89
27712;BME280;2377;51.734;8.950;2023-04-05T08:17:48;98473.75;;;6.56;56.27
27712;BME280;2377;51.734;8.950;2023-04-05T08:20:15;98477.09;;;6.72;55.62
27712;BME280;2377;51.734;8.950;2023-04-05T08:22:42;98471.97;;;6.80;55.00
27712;BME280;2377;51.734;8.950;2023-04-05T08:25:09;98473.03;;;6.86;54.81
27712;BME280;2377;51.734;8.950;2023-04-05T08:27:36;98465.25;;;6.87;53.56
27712;BME280;2377;51.734;8.950;2023-04-05T08:30:05;98471.50;;;6.99;53.74
27712;BME280;2377;51.734;8.950;2023-04-05T08:32:34;98467.31;;;7.22;53.18
27712;BME280;2377;51.734;8.950;2023-04-05T08:35:01;98469.59;;;7.31;52.61
27712;BME280;2377;51.734;8.950;2023-04-05T08:37:32;98472.16;;;7.46;52.75
27712;BME280;2377;51.734;8.950;2023-04-05T08:39:59;98464.69;;;7.59;53.93
27712;BME280;2377;51.734;8.950;2023-04-05T08:42:33;98474.88;;;7.74;52.66
27712;BME280;2377;51.734;8.950;2023-04-05T08:45:03;98462.81;;;7.83;51.60
27712;BME280;2377;51.734;8.950;2023-04-05T08:47:36;98458.28;;;7.78;51.07
27712;BME280;2377;51.734;8.950;2023-04-05T08:50:06;98463.19;;;7.80;50.62
27712;BME280;2377;51.734;8.950;2023-04-05T08:52:38;98462.66;;;7.84;51.38
27712;BME280;2377;51.734;8.950;2023-04-05T08:55:08;98471.34;;;7.90;51.32
27712;BME280;2377;51.734;8.950;2023-04-05T08:57:38;98458.06;;;7.95;50.46
27712;BME280;2377;51.734;8.950;2023-04-05T09:00:10;98463.84;;;8.03;51.23
27712;BME280;2377;51.734;8.950;2023-04-05T09:02:42;98461.59;;;8.15;50.74
27712;BME280;2377;51.734;8.950;2023-04-05T09:05:11;98472.56;;;8.31;51.39
27712;BME280;2377;51.734;8.950;2023-04-05T09:07:40;98467.59;;;8.44;50.54
27712;BME280;2377;51.734;8.950;2023-04-05T09:10:12;98472.41;;;8.54;50.30
27712;BME280;2377;51.734;8.950;2023-04-05T09:12:40;98475.38;;;8.57;51.11
27712;BME280;2377;51.734;8.950;2023-04-05T09:15:08;98472.09;;;8.63;49.96
27712;BME280;2377;51.734;8.950;2023-04-05T09:17:40;98469.78;;;8.68;49.91
27712;BME280;2377;51.734;8.950;2023-04-05T09:20:08;98477.66;;;8.74;48.75
27712;BME280;2377;51.734;8.950;2023-04-05T09:22:42;98467.09;;;8.77;48.42
27712;BME280;2377;51.734;8.950;2023-04-05T09:25:10;98461.88;;;8.85;49.00
27712;BME280;2377;51.734;8.950;2023-04-05T09:27:53;98470.59;;;8.97;48.32
27712;BME280;2377;51.734;8.950;2023-04-05T09:30:23;98468.50;;;9.07;47.63
27712;BME280;2377;51.734;8.950;2023-04-05T09:32:53;98463.50;;;9.21;48.14
27712;BME280;2377;51.734;8.950;2023-04-05T09:35:21;98457.50;;;9.35;47.24
27712;BME280;2377;51.734;8.950;2023-04-05T09:37:54;98462.03;;;9.40;48.04
27712;BME280;2377;51.734;8.950;2023-04-05T09:40:23;98461.41;;;9.31;46.52
27712;BME280;2377;51.734;8.950;2023-04-05T09:42:50;98460.78;;;9.22;47.79
27712;BME280;2377;51.734;8.950;2023-04-05T09:45:18;98467.44;;;9.23;48.44
27712;BME280;2377;51.734;8.950;2023-04-05T09:47:56;98456.84;;;9.20;48.00
27712;BME280;2377;51.734;8.950;2023-04-05T09:50:23;98451.66;;;9.06;47.45
27712;BME280;2377;51.734;8.950;2023-04-05T09:52:51;98461.75;;;8.93;48.28
27712;BME280;2377;51.734;8.950;2023-04-05T09:55:31;98443.53;;;8.96;47.95
27712;BME280;2377;51.734;8.950;2023-04-05T09:57:58;98457.84;;;8.97;47.96
27712;BME280;2377;51.734;8.950;2023-04-05T10:00:25;98455.41;;;9.10;48.64
27712;BME280;2377;51.734;8.950;2023-04-05T10:02:54;98450.38;;;9.24;48.06
27712;BME280;2377;51.734;8.950;2023-04-05T10:05:24;98447.28;;;9.35;47.54
27712;BME280;2377;51.734;8.950;2023-04-05T10:07:54;98447.72;;;9.39;45.87
27712;BME280;2377;51.734;8.950;2023-04-05T10:10:22;98449.16;;;9.48;47.19
27712;BME280;2377;51.734;8.950;2023-04-05T10:12:50;98450.34;;;9.59;46.97
27712;BME280;2377;51.734;8.950;2023-04-05T10:15:19;98439.22;;;9.73;46.29
27712;BME280;2377;51.734;8.950;2023-04-05T10:17:51;98439.44;;;9.78;46.25
27712;BME280;2377;51.734;8.950;2023-04-05T10:20:24;98435.66;;;9.61;45.01
27712;BME280;2377;51.734;8.950;2023-04-05T10:23:06;98426.44;;;9.60;47.28
27712;BME280;2377;51.734;8.950;2023-04-05T10:25:50;98432.34;;;9.67;44.35
27712;BME280;2377;51.734;8.950;2023-04-05T10:28:29;98429.59;;;9.75;45.71
27712;BME280;2377;51.734;8.950;2023-04-05T10:31:09;98432.78;;;9.84;46.57
27712;BME280;2377;51.734;8.950;2023-04-05T10:33:42;98433.19;;;9.81;45.25
27712;BME280;2377;51.734;8.950;2023-04-05T10:36:23;98432.59;;;9.85;46.00
27712;BME280;2377;51.734;8.950;2023-04-05T10:39:00;98428.88;;;9.94;45.45
27712;BME280;2377;51.734;8.950;2023-04-05T10:41:33;98426.16;;;9.96;44.64
27712;BME280;2377;51.734;8.950;2023-04-05T10:44:04;98430.69;;;10.01;43.34
27712;BME280;2377;51.734;8.950;2023-04-05T10:46:33;98435.16;;;9.92;43.79
27712;BME280;2377;51.734;8.950;2023-04-05T10:49:08;98425.75;;;9.99;43.54
27712;BME280;2377;51.734;8.950;2023-04-05T10:51:39;98426.94;;;10.03;43.59
27712;BME280;2377;51.734;8.950;2023-04-05T10:54:10;98419.69;;;10.07;44.29
27712;BME280;2377;51.734;8.950;2023-04-05T10:56:38;98419.13;;;10.11;45.36
27712;BME280;2377;51.734;8.950;2023-04-05T10:59:07;98407.53;;;10.22;45.01
27712;BME280;2377;51.734;8.950;2023-04-05T11:01:35;98403.41;;;10.21;42.54
27712;BME280;2377;51.734;8.950;2023-04-05T11:04:11;98407.72;;;10.27;43.86
27712;BME280;2377;51.734;8.950;2023-04-05T11:06:40;98410.53;;;10.32;42.85
27712;BME280;2377;51.734;8.950;2023-04-05T11:09:13;98406.97;;;10.33;41.55
27712;BME280;2377;51.734;8.950;2023-04-05T11:11:44;98411.69;;;10.36;43.07
27712;BME280;2377;51.734;8.950;2023-04-05T11:14:20;98407.75;;;10.34;42.96
27712;BME280;2377;51.734;8.950;2023-04-05T11:16:51;98411.09;;;10.34;43.55
27712;BME280;2377;51.734;8.950;2023-04-05T11:19:20;98404.22;;;10.28;43.75
27712;BME280;2377;51.734;8.950;2023-04-05T11:22:09;98399.69;;;10.24;41.47
27712;BME280;2377;51.734;8.950;2023-04-05T11:24:52;98399.47;;;10.12;41.23
27712;BME280;2377;51.734;8.950;2023-04-05T11:27:25;98397.88;;;10.11;42.82
27712;BME280;2377;51.734;8.950;2023-04-05T11:29:54;98391.59;;;10.07;43.55
27712;BME280;2377;51.734;8.950;2023-04-05T11:32:22;98392.38;;;10.07;41.89
27712;BME280;2377;51.734;8.950;2023-04-05T11:35:05;98389.81;;;10.07;41.14
27712;BME280;2377;51.734;8.950;2023-04-05T11:37:54;98387.66;;;10.11;42.52
27712;BME280;2377;51.734;8.950;2023-04-05T11:40:26;98378.47;;;10.30;42.18
27712;BME280;2377;51.734;8.950;2023-04-05T11:43:11;98390.47;;;10.43;41.65
27712;BME280;2377;51.734;8.950;2023-04-05T11:45:40;98375.94;;;10.50;40.71
27712;BME280;2377;51.734;8.950;2023-04-05T11:48:09;98369.81;;;10.51;40.47
27712;BME280;2377;51.734;8.950;2023-04-05T11:50:39;98383.97;;;10.60;42.89
27712;BME280;2377;51.734;8.950;2023-04-05T11:53:09;98370.22;;;10.68;41.60
27712;BME280;2377;51.734;8.950;2023-04-05T11:55:36;98375.53;;;10.66;40.09
27712;BME280;2377;51.734;8.950;2023-04-05T11:58:11;98369.44;;;10.61;40.78
27712;BME280;2377;51.734;8.950;2023-04-05T12:00:40;98364.47;;;10.79;41.30
27712;BME280;2377;51.734;8.950;2023-04-05T12:03:11;98370.34;;;10.93;41.55
27712;BME280;2377;51.734;8.950;2023-04-05T12:05:47;98365.25;;;10.93;40.90
27712;BME280;2377;51.734;8.950;2023-04-05T12:08:16;98360.91;;;10.93;41.85
27712;BME280;2377;51.734;8.950;2023-04-05T12:10:43;98357.19;;;10.96;42.75
27712;BME280;2377;51.734;8.950;2023-04-05T12:13:10;98365.25;;;10.93;41.48
27712;BME280;2377;51.734;8.950;2023-04-05T12:15:39;98346.78;;;10.84;38.71
27712;BME280;2377;51.734;8.950;2023-04-05T12:18:12;98345.22;;;10.76;39.88
27712;BME280;2377;51.734;8.950;2023-04-05T12:20:41;98337.53;;;10.76;39.53
27712;BME280;2377;51.734;8.950;2023-04-05T12:23:08;98334.19;;;10.76;38.97
27712;BME280;2377;51.734;8.950;2023-04-05T12:25:37;98339.31;;;10.76;39.04
27712;BME280;2377;51.734;8.950;2023-04-05T12:28:07;98338.72;;;10.81;39.58
27712;BME280;2377;51.734;8.950;2023-04-05T12:30:34;98337.50;;;10.96;40.55
27712;BME280;2377;51.734;8.950;2023-04-05T12:33:09;98335.31;;;11.00;40.75
27712;BME280;2377;51.734;8.950;2023-04-05T12:35:37;98329.22;;;11.08;39.77
27712;BME280;2377;51.734;8.950;2023-04-05T12:38:05;98332.38;;;11.03;40.08
27712;BME280;2377;51.734;8.950;2023-04-05T12:40:39;98337.66;;;11.08;40.94
27712;BME280;2377;51.734;8.950;2023-04-05T12:43:08;98327.81;;;11.05;40.21
27712;BME280;2377;51.734;8.950;2023-04-05T12:45:35;98330.81;;;10.95;42.50
27712;BME280;2377;51.734;8.950;2023-04-05T12:48:08;98323.53;;;10.92;40.15
27712;BME280;2377;51.734;8.950;2023-04-05T12:50:42;98316.72;;;10.79;40.05
27712;BME280;2377;51.734;8.950;2023-04-05T12:53:16;98316.88;;;10.85;41.11
27712;BME280;2377;51.734;8.950;2023-04-05T12:55:52;98311.34;;;10.88;44.44
27712;BME280;2377;51.734;8.950;2023-04-05T12:58:21;98305.84;;;10.91;41.46
27712;BME280;2377;51.734;8.950;2023-04-05T13:00:48;98299.75;;;10.92;41.40
27712;BME280;2377;51.734;8.950;2023-04-05T13:03:17;98304.88;;;10.92;40.66
27712;BME280;2377;51.734;8.950;2023-04-05T13:05:46;98305.47;;;10.81;39.33
27712;BME280;2377;51.734;8.950;2023-04-05T13:08:14;98299.03;;;10.65;40.25
27712;BME280;2377;51.734;8.950;2023-04-05T13:10:43;98299.25;;;10.63;41.16
27712;BME280;2377;51.734;8.950;2023-04-05T13:13:13;98296.28;;;10.66;40.25
27712;BME280;2377;51.734;8.950;2023-04-05T13:15:40;98297.44;;;10.70;40.51
27712;BME280;2377;51.734;8.950;2023-04-05T13:18:07;98295.06;;;10.75;39.75
27712;BME280;2377;51.734;8.950;2023-04-05T13:20:35;98293.09;;;10.77;39.49
27712;BME280;2377;51.734;8.950;2023-04-05T13:23:03;98288.19;;;10.69;43.09
27712;BME280;2377;51.734;8.950;2023-04-05T13:25:35;98277.59;;;10.72;40.90
27712;BME280;2377;51.734;8.950;2023-04-05T13:28:02;98284.09;;;10.68;41.11
27712;BME280;2377;51.734;8.950;2023-04-05T13:30:31;98283.09;;;10.69;40.75
27712;BME280;2377;51.734;8.950;2023-04-05T13:32:58;98270.91;;;10.58;39.67
27712;BME280;2377;51.734;8.950;2023-04-05T13:35:25;98267.22;;;10.41;38.69
27712;BME280;2377;51.734;8.950;2023-04-05T13:37:52;98269.16;;;10.25;39.43